Time;durP1;ratioP1;P1;durP2;ratioP2;P2;SDS_P1;SDS_P2;PMS_P1;PMS_P2;Temp;Humidity;BMP_temperature;BMP_pressure;BME280_temperature;BME280_humidity;BME280_pressure;Samples;Min_cycle;Max_cycle;Signal;HPM_P1;HPM_P2
2024/03/22 00:00:54;;;;;;;;;;;;;;;;;;2096225;28;20105;-81
2024/03/22 00:01:55;;;;;;;;;;;;;;;;;;2087787;28;19956;-80
2024/03/22 00:02:56;;;;;;;;;;;;;;;;;;2097114;28;19928;-80
2024/03/22 00:03:56;;;;;;;;;;;;;;;;;;2095112;28;19925;-82
2024/03/22 00:04:57;;;;;;;;;;;;;;;;;;2096873;28;19920;-80
2024/03/22 00:05:58;;;;;;;;;;;;;;;;;;2100528;28;19923;-83
2024/03/22 00:06:59;;;;;;;;;;;;;;;;;;2099227;28;19920;-81
2024/03/22 00:08:00;;;;;;;;;;;;;;;;;;2095637;28;20271;-82
2024/03/22 00:09:01;;;;;;;;;;;;;;;;;;2092723;28;20390;-81
2024/03/22 00:10:02;;;;;;;;;;;;;;;;;;2097294;28;19964;-81
2024/03/22 00:11:03;;;;;;;;;;;;;;;;;;2094689;28;19925;-81
2024/03/22 00:12:04;;;;;;;;;;;;;;;;;;2095561;28;20710;-83
2024/03/22 00:13:04;;;;;;;;;;;;;;;;;;2094730;28;19927;-81
2024/03/22 00:14:05;;;;;;;;;;;;;;;;;;2095405;28;19983;-80
2024/03/22 00:15:06;;;;;;;;;;;;;;;;;;2092067;28;19921;-81
2024/03/22 00:16:06;;;;;;;;;;;;;;;;;;2093214;28;19921;-82
2024/03/22 00:17:07;;;;;;;;;;;;;;;;;;2095010;28;20042;-82
2024/03/22 00:18:08;;;;;;;;;;;;;;;;;;2095998;28;20027;-82
2024/03/22 00:19:09;;;;;;;;;;;;;;;;;;2094190;28;19924;-82
2024/03/22 00:20:09;;;;;;;;;;;;;;;;;;2093864;28;19970;-83
2024/03/22 00:21:10;;;;;;;;;;;;;;;;;;2094979;28;19946;-83
2024/03/22 00:22:11;;;;;;;;;;;;;;;;;;2095171;28;19963;-82
2024/03/22 00:23:13;;;;;;;;;;;;;;;;;;2093675;28;19946;-82
2024/03/22 00:24:13;;;;;;;;;;;;;;;;;;2094634;28;20257;-82
2024/03/22 00:25:13;;;;;;;;;;;;;;;;;;2095257;28;19930;-83
2024/03/22 00:26:15;;;;;;;;;;;;;;;;;;2094817;28;19931;-82
2024/03/22 00:27:15;;;;;;;;;;;;;;;;;;2094295;28;19921;-82
2024/03/22 00:28:16;;;;;;;;;;;;;;;;;;2094155;28;19925;-82
2024/03/22 00:29:16;;;;;;;;;;;;;;;;;;2092548;28;19920;-83
2024/03/22 00:30:18;;;;;;;;;;;;;;;;;;2094102;28;20439;-81
2024/03/22 00:31:18;;;;;;;;;;;;;;;;;;2096293;28;20401;-83
2024/03/22 00:32:19;;;;;;;;;;;;;;;;;;2094442;28;19934;-82
2024/03/22 00:33:20;;;;;;;;;;;;;;;;;;2096415;28;19925;-81
2024/03/22 00:34:20;;;;;;;;;;;;;;;;;;2094523;28;19924;-84
2024/03/22 00:35:21;;;;;;;;;;;;;;;;;;2094977;28;20360;-83
2024/03/22 00:36:21;;;;;;;;;;;;;;;;;;2094674;28;20311;-82
2024/03/22 00:37:23;;;;;;;;;;;;;;;;;;2090188;28;20439;-81
2024/03/22 00:38:24;;;;;;;;;;;;;;;;;;2091873;28;20285;-82
2024/03/22 00:39:25;;;;;;;;;;;;;;;;;;2091372;28;19928;-82
2024/03/22 00:40:25;;;;;;;;;;;;;;;;;;2091685;28;20007;-84
2024/03/22 00:41:26;;;;;;;;;;;;;;;;;;2091486;28;19936;-83
2024/03/22 00:42:27;;;;;;;;;;;;;;;;;;2091892;28;20285;-82
2024/03/22 00:43:27;;;;;;;;;;;;;;;;;;2091550;28;19928;-81
2024/03/22 00:44:29;;;;;;;;;;;;;;;;;;2092383;28;20346;-82
2024/03/22 00:45:29;;;;;;;;;;;;;;;;;;2091352;28;19928;-82
2024/03/22 00:46:29;;;;;;;;;;;;;;;;;;2091238;28;21242;-83
2024/03/22 00:47:31;;;;;;;;;;;;;;;;;;2092322;28;19929;-83
2024/03/22 00:48:32;;;;;;;;;;;;;;;;;;2091635;28;19981;-80
2024/03/22 00:49:32;;;;;;;;;;;;;;;;;;2092451;28;20463;-82
2024/03/22 00:50:32;;;;;;;;;;;;;;;;;;2093818;28;19924;-82
2024/03/22 00:51:34;;;;;;;;;;;;;;;;;;2091833;28;19935;-81
2024/03/22 00:52:34;;;;;;;;;;;;;;;;;;2090032;28;19985;-82
2024/03/22 00:53:36;;;;;;;;;;;;;;;;;;2092845;28;20289;-81
2024/03/22 00:54:39;;;;;;;;;;;;;;;;;;2092647;28;19932;-82
2024/03/22 00:55:39;;;;;;;;;;;;;;;;;;2090603;28;20027;-82
2024/03/22 00:56:40;;;;;;;;;;;;;;;;;;2091661;28;19951;-83
2024/03/22 00:57:40;;;;;;;;;;;;;;;;;;2092592;28;20309;-82
2024/03/22 00:58:41;;;;;;;;;;;;;;;;;;2091120;28;20024;-82
2024/03/22 00:59:42;;;;;;;;;;;;;;;;;;2092382;28;19928;-82
2024/03/22 01:00:42;;;;;;;;;;;;;;;;;;2092381;28;19925;-83
2024/03/22 01:01:44;;;;;;;;;;;;;;;;;;2090537;28;19928;-84
2024/03/22 01:02:46;;;;;;;;;;;;;;;;;;2094316;28;19929;-82
2024/03/22 01:03:47;;;;;;;;;;;;;;;;;;2093407;28;19927;-82
2024/03/22 01:04:47;;;;;;;;;;;;;;;;;;2094171;28;20627;-83
2024/03/22 01:05:48;;;;;;;;;;;;;;;;;;2095739;28;19989;-82
2024/03/22 01:06:49;;;;;;;;;;;;;;;;;;2094846;28;19920;-83
2024/03/22 01:07:49;;;;;;;;;;;;;;;;;;2094542;28;19924;-82
2024/03/22 01:08:51;;;;;;;;;;;;;;;;;;2094476;28;19921;-81
2024/03/22 01:09:53;;;;;;;;;;;;;;;;;;2095765;28;19924;-82
2024/03/22 01:10:53;;;;;;;;;;;;;;;;;;2093701;28;19974;-83
2024/03/22 01:11:53;;;;;;;;;;;;;;;;;;2094482;28;20439;-82
2024/03/22 01:12:55;;;;;;;;;;;;;;;;;;2092880;28;19920;-83
2024/03/22 01:13:55;;;;;;;;;;;;;;;;;;2093757;28;19920;-83
2024/03/22 01:14:56;;;;;;;;;;;;;;;;;;2094222;28;20219;-82
2024/03/22 01:15:57;;;;;;;;;;;;;;;;;;2092594;28;20045;-82
2024/03/22 01:16:57;;;;;;;;;;;;;;;;;;2095456;28;19990;-82
2024/03/22 01:17:58;;;;;;;;;;;;;;;;;;2095673;28;19976;-82
2024/03/22 01:18:58;;;;;;;;;;;;;;;;;;2094576;28;19924;-83
2024/03/22 01:19:59;;;;;;;;;;;;;;;;;;2093278;28;19921;-81
2024/03/22 01:21:00;;;;;;;;;;;;;;;;;;2095005;28;19932;-81
2024/03/22 01:22:00;;;;;;;;;;;;;;;;;;2095371;28;20515;-82
2024/03/22 01:23:00;;;;;;;;;;;;;;;;;;2092973;28;20255;-82
2024/03/22 01:24:03;;;;;;;;;;;;;;;;;;2094770;28;19994;-83
2024/03/22 01:25:04;;;;;;;;;;;;;;;;;;2092050;28;19929;-82
2024/03/22 01:26:04;;;;;;;;;;;;;;;;;;2093889;28;20377;-81
2024/03/22 01:27:05;;;;;;;;;;;;;;;;;;2094273;28;19925;-82
2024/03/22 01:28:06;;;;;;;;;;;;;;;;;;2093552;28;19928;-81
2024/03/22 01:29:07;;;;;;;;;;;;;;;;;;2095733;28;19920;-83
2024/03/22 01:30:08;;;;;;;;;;;;;;;;;;2096626;28;19968;-82
2024/03/22 01:31:08;;;;;;;;;;;;;;;;;;2094705;28;20354;-82
2024/03/22 01:32:09;;;;;;;;;;;;;;;;;;2096086;28;19927;-82
2024/03/22 01:33:10;;;;;;;;;;;;;;;;;;2092123;28;19948;-81
2024/03/22 01:34:10;;;;;;;;;;;;;;;;;;2095560;28;19964;-82
2024/03/22 01:35:11;;;;;;;;;;;;;;;;;;2097126;28;19924;-82
2024/03/22 01:36:12;;;;;;;;;;;;;;;;;;2093815;28;20015;-82
2024/03/22 01:37:12;;;;;;;;;;;;;;;;;;2095540;28;19962;-81
2024/03/22 01:38:13;;;;;;;;;;;;;;;;;;2095277;28;19985;-81
2024/03/22 01:39:16;;;;;;;;;;;;;;;;;;2095116;28;19924;-82
2024/03/22 01:40:17;;;;;;;;;;;;;;;;;;2093543;28;19965;-82
2024/03/22 01:41:17;;;;;;;;;;;;;;;;;;2094103;28;19928;-82
2024/03/22 01:42:18;;;;;;;;;;;;;;;;;;2094615;28;19924;-85
2024/03/22 01:43:19;;;;;;;;;;;;;;;;;;2091983;28;19931;-82
2024/03/22 01:44:26;;;;;;;;;;;;;;;;;;2092715;28;19920;-84
2024/03/22 01:45:27;;;;;;;;;;;;;;;;;;2094358;28;20385;-82
2024/03/22 01:46:28;;;;;;;;;;;;;;;;;;2092671;28;19923;-81
2024/03/22 01:47:29;;;;;;;;;;;;;;;;;;2097893;28;20016;-81
2024/03/22 01:48:29;;;;;;;;;;;;;;;;;;2094471;28;19981;-82
2024/03/22 01:49:30;;;;;;;;;;;;;;;;;;2091895;28;21369;-83
2024/03/22 01:50:31;;;;;;;;;;;;;;;;;;2097595;28;19924;-81
2024/03/22 01:51:31;;;;;;;;;;;;;;;;;;2095631;28;20031;-81
2024/03/22 01:52:32;;;;;;;;;;;;;;;;;;2093599;28;20085;-82
2024/03/22 01:53:33;;;;;;;;;;;;;;;;;;2093851;28;19968;-81
2024/03/22 01:54:35;;;;;;;;;;;;;;;;;;2097184;28;19924;-82
2024/03/22 01:55:36;;;;;;;;;;;;;;;;;;2093209;28;20298;-82
2024/03/22 01:56:37;;;;;;;;;;;;;;;;;;2093031;28;19956;-82
2024/03/22 01:57:37;;;;;;;;;;;;;;;;;;2095880;28;19924;-82
2024/03/22 01:58:37;;;;;;;;;;;;;;;;;;2094959;28;19931;-82
2024/03/22 01:59:39;;;;;;;;;;;;;;;;;;2095678;28;20345;-82
2024/03/22 02:00:39;;;;;;;;;;;;;;;;;;2095202;28;19928;-83
2024/03/22 02:01:40;;;;;;;;;;;;;;;;;;2095151;28;20317;-82
2024/03/22 02:02:40;;;;;;;;;;;;;;;;;;2097360;28;19939;-83
2024/03/22 02:03:41;;;;;;;;;;;;;;;;;;2096135;28;19920;-82
2024/03/22 02:04:42;;;;;;;;;;;;;;;;;;2096598;28;19939;-82
2024/03/22 02:05:42;;;;;;;;;;;;;;;;;;2100001;28;19955;-82
2024/03/22 02:06:44;;;;;;;;;;;;;;;;;;2097258;28;19924;-83
2024/03/22 02:07:44;;;;;;;;;;;;;;;;;;2096815;28;19933;-84
2024/03/22 02:08:44;;;;;;;;;;;;;;;;;;2095185;28;19920;-83
2024/03/22 02:09:46;;;;;;;;;;;;;;;;;;2096294;28;19928;-82
2024/03/22 02:10:48;;;;;;;;;;;;;;;;;;2100609;28;19924;-83
2024/03/22 02:11:48;;;;;;;;;;;;;;;;;;2097309;28;19921;-82
2024/03/22 02:12:48;;;;;;;;;;;;;;;;;;2096867;28;19928;-82
2024/03/22 02:13:49;;;;;;;;;;;;;;;;;;2097371;28;19931;-82
2024/03/22 02:14:51;;;;;;;;;;;;;;;;;;2094730;28;19955;-81
2024/03/22 02:15:51;;;;;;;;;;;;;;;;;;2096296;28;19920;-81
2024/03/22 02:16:52;;;;;;;;;;;;;;;;;;2097463;28;19924;-82
2024/03/22 02:17:52;;;;;;;;;;;;;;;;;;2096298;28;20290;-81
2024/03/22 02:18:54;;;;;;;;;;;;;;;;;;2097827;28;19927;-81
2024/03/22 02:19:54;;;;;;;;;;;;;;;;;;2092097;28;20051;-82
2024/03/22 02:20:56;;;;;;;;;;;;;;;;;;2095832;28;19924;-81
2024/03/22 02:21:57;;;;;;;;;;;;;;;;;;2094344;28;19925;-82
2024/03/22 02:22:58;;;;;;;;;;;;;;;;;;2096838;28;19921;-82
2024/03/22 02:23:59;;;;;;;;;;;;;;;;;;2095979;28;19927;-83
2024/03/22 02:25:00;;;;;;;;;;;;;;;;;;2094544;28;19924;-81
2024/03/22 02:26:01;;;;;;;;;;;;;;;;;;2092402;28;19928;-81
2024/03/22 02:27:02;;;;;;;;;;;;;;;;;;2097309;28;20335;-81
2024/03/22 02:28:02;;;;;;;;;;;;;;;;;;2094516;28;19920;-81
2024/03/22 02:29:03;;;;;;;;;;;;;;;;;;2095896;28;20282;-82
2024/03/22 02:30:05;;;;;;;;;;;;;;;;;;2098270;28;19920;-82
2024/03/22 02:31:05;;;;;;;;;;;;;;;;;;2095056;28;19932;-82
2024/03/22 02:32:06;;;;;;;;;;;;;;;;;;2094938;28;19928;-83
2024/03/22 02:33:07;;;;;;;;;;;;;;;;;;2094620;28;19932;-82
2024/03/22 02:34:08;;;;;;;;;;;;;;;;;;2094089;28;19925;-82
2024/03/22 02:35:08;;;;;;;;;;;;;;;;;;2095492;28;19924;-81
2024/03/22 02:36:09;;;;;;;;;;;;;;;;;;2092277;28;20286;-83
2024/03/22 02:37:10;;;;;;;;;;;;;;;;;;2092904;28;19966;-82
2024/03/22 02:38:11;;;;;;;;;;;;;;;;;;2094323;28;19920;-82
2024/03/22 02:39:13;;;;;;;;;;;;;;;;;;2096515;28;20592;-82
2024/03/22 02:40:13;;;;;;;;;;;;;;;;;;2095006;28;19920;-83
2024/03/22 02:41:14;;;;;;;;;;;;;;;;;;2094491;28;19970;-82
2024/03/22 02:42:15;;;;;;;;;;;;;;;;;;2096952;28;19947;-80
2024/03/22 02:43:17;;;;;;;;;;;;;;;;;;2095555;28;20381;-82
2024/03/22 02:44:17;;;;;;;;;;;;;;;;;;2094418;28;19924;-84
2024/03/22 02:45:19;;;;;;;;;;;;;;;;;;2095497;28;20045;-81
2024/03/22 02:46:19;;;;;;;;;;;;;;;;;;2096171;28;19946;-83
2024/03/22 02:47:20;;;;;;;;;;;;;;;;;;2094019;28;19925;-81
2024/03/22 02:48:20;;;;;;;;;;;;;;;;;;2094234;28;19921;-83
2024/03/22 02:49:22;;;;;;;;;;;;;;;;;;2097121;28;19924;-80
2024/03/22 02:50:22;;;;;;;;;;;;;;;;;;2095066;28;19921;-81
2024/03/22 02:51:22;;;;;;;;;;;;;;;;;;2095030;28;19952;-82
2024/03/22 02:52:23;;;;;;;;;;;;;;;;;;2094156;28;19944;-82
2024/03/22 02:53:24;;;;;;;;;;;;;;;;;;2096867;28;19974;-82
2024/03/22 02:54:26;;;;;;;;;;;;;;;;;;2094926;28;19973;-81
2024/03/22 02:55:26;;;;;;;;;;;;;;;;;;2092189;28;19948;-82
2024/03/22 02:56:27;;;;;;;;;;;;;;;;;;2100741;28;20029;-83
2024/03/22 02:57:28;;;;;;;;;;;;;;;;;;2095945;28;19946;-82
2024/03/22 02:58:29;;;;;;;;;;;;;;;;;;2099654;28;19928;-82
2024/03/22 02:59:29;;;;;;;;;;;;;;;;;;2098631;28;19927;-82
2024/03/22 03:00:29;;;;;;;;;;;;;;;;;;2097425;28;19924;-81
2024/03/22 03:01:31;;;;;;;;;;;;;;;;;;2099392;28;19986;-82
2024/03/22 03:02:31;;;;;;;;;;;;;;;;;;2096546;28;20297;-83
2024/03/22 03:03:32;;;;;;;;;;;;;;;;;;2096410;28;19928;-84
2024/03/22 03:04:32;;;;;;;;;;;;;;;;;;2096759;28;19924;-83
2024/03/22 03:05:34;;;;;;;;;;;;;;;;;;2096631;28;20638;-83
2024/03/22 03:06:35;;;;;;;;;;;;;;;;;;2096765;28;20353;-80
2024/03/22 03:07:35;;;;;;;;;;;;;;;;;;2096698;28;20027;-81
2024/03/22 03:08:36;;;;;;;;;;;;;;;;;;2094640;28;19951;-83
2024/03/22 03:09:38;;;;;;;;;;;;;;;;;;2094416;28;19935;-81
2024/03/22 03:10:39;;;;;;;;;;;;;;;;;;2095179;28;20032;-82
2024/03/22 03:11:40;;;;;;;;;;;;;;;;;;2093684;28;19921;-82
2024/03/22 03:12:40;;;;;;;;;;;;;;;;;;2096337;28;19920;-82
2024/03/22 03:13:41;;;;;;;;;;;;;;;;;;2097881;28;19971;-82
2024/03/22 03:14:42;;;;;;;;;;;;;;;;;;2095346;28;20011;-82
2024/03/22 03:15:43;;;;;;;;;;;;;;;;;;2097254;28;19963;-82
2024/03/22 03:16:43;;;;;;;;;;;;;;;;;;2095662;28;19928;-83
2024/03/22 03:17:44;;;;;;;;;;;;;;;;;;2094980;28;19932;-81
2024/03/22 03:18:45;;;;;;;;;;;;;;;;;;2095380;28;19977;-81
2024/03/22 03:19:46;;;;;;;;;;;;;;;;;;2091763;28;19924;-83
2024/03/22 03:20:46;;;;;;;;;;;;;;;;;;2092919;28;19935;-83
2024/03/22 03:21:46;;;;;;;;;;;;;;;;;;2095589;28;19943;-82
2024/03/22 03:22:48;;;;;;;;;;;;;;;;;;2094523;28;19957;-82
2024/03/22 03:23:48;;;;;;;;;;;;;;;;;;2096842;28;20270;-83
2024/03/22 03:24:50;;;;;;;;;;;;;;;;;;2095657;28;20334;-82
2024/03/22 03:25:50;;;;;;;;;;;;;;;;;;2094137;28;19931;-82
2024/03/22 03:26:50;;;;;;;;;;;;;;;;;;2095573;28;19951;-82
2024/03/22 03:27:52;;;;;;;;;;;;;;;;;;2093354;28;20377;-82
2024/03/22 03:28:54;;;;;;;;;;;;;;;;;;2096338;28;19924;-82
2024/03/22 03:29:54;;;;;;;;;;;;;;;;;;2097672;28;19974;-82
2024/03/22 03:30:55;;;;;;;;;;;;;;;;;;2095707;28;19966;-82
2024/03/22 03:31:56;;;;;;;;;;;;;;;;;;2092830;28;19967;-82
2024/03/22 03:32:57;;;;;;;;;;;;;;;;;;2093053;28;20341;-81
2024/03/22 03:33:57;;;;;;;;;;;;;;;;;;2092387;28;19925;-82
2024/03/22 03:34:59;;;;;;;;;;;;;;;;;;2097354;28;19931;-82
2024/03/22 03:35:59;;;;;;;;;;;;;;;;;;2098084;28;19943;-82
2024/03/22 03:37:01;;;;;;;;;;;;;;;;;;2097495;28;19950;-82
2024/03/22 03:38:01;;;;;;;;;;;;;;;;;;2094479;28;19927;-82
2024/03/22 03:39:03;;;;;;;;;;;;;;;;;;2095563;28;19930;-84
2024/03/22 03:40:06;;;;;;;;;;;;;;;;;;2094439;28;19921;-83
2024/03/22 03:41:07;;;;;;;;;;;;;;;;;;2091794;28;19936;-83
2024/03/22 03:42:07;;;;;;;;;;;;;;;;;;2095514;28;20030;-83
2024/03/22 03:43:08;;;;;;;;;;;;;;;;;;2097526;28;19924;-82
2024/03/22 03:44:09;;;;;;;;;;;;;;;;;;2096462;28;19920;-83
2024/03/22 03:45:09;;;;;;;;;;;;;;;;;;2095466;28;19971;-82
2024/03/22 03:46:09;;;;;;;;;;;;;;;;;;2094860;28;19924;-83
2024/03/22 03:47:11;;;;;;;;;;;;;;;;;;2095448;28;20330;-83
2024/03/22 03:48:11;;;;;;;;;;;;;;;;;;2095146;28;19920;-81
2024/03/22 03:49:11;;;;;;;;;;;;;;;;;;2096766;28;19974;-81
2024/03/22 03:50:12;;;;;;;;;;;;;;;;;;2096494;28;19948;-83
2024/03/22 03:51:13;;;;;;;;;;;;;;;;;;2096174;28;19925;-83
2024/03/22 03:52:14;;;;;;;;;;;;;;;;;;2092657;28;20421;-82
2024/03/22 03:53:14;;;;;;;;;;;;;;;;;;2095702;28;19928;-81
2024/03/22 03:54:15;;;;;;;;;;;;;;;;;;2095795;28;20601;-82
2024/03/22 03:55:17;;;;;;;;;;;;;;;;;;2093189;28;19932;-82
2024/03/22 03:56:18;;;;;;;;;;;;;;;;;;2095589;28;19971;-83
2024/03/22 03:57:18;;;;;;;;;;;;;;;;;;2095233;28;20349;-84
2024/03/22 03:58:19;;;;;;;;;;;;;;;;;;2094941;28;20023;-81
2024/03/22 03:59:20;;;;;;;;;;;;;;;;;;2096261;28;20651;-82
2024/03/22 04:00:20;;;;;;;;;;;;;;;;;;2097908;28;19973;-82
2024/03/22 04:01:22;;;;;;;;;;;;;;;;;;2094847;28;19943;-82
2024/03/22 04:02:22;;;;;;;;;;;;;;;;;;2096090;28;19928;-82
2024/03/22 04:03:24;;;;;;;;;;;;;;;;;;2094736;28;19921;-81
2024/03/22 04:04:25;;;;;;;;;;;;;;;;;;2095581;28;19924;-82
2024/03/22 04:05:25;;;;;;;;;;;;;;;;;;2096381;28;19928;-83
2024/03/22 04:06:25;;;;;;;;;;;;;;;;;;2092585;28;19920;-82
2024/03/22 04:07:27;;;;;;;;;;;;;;;;;;2093525;28;19932;-82
2024/03/22 04:08:27;;;;;;;;;;;;;;;;;;2093419;28;19928;-84
2024/03/22 04:09:28;;;;;;;;;;;;;;;;;;2093755;28;19924;-80
2024/03/22 04:10:30;;;;;;;;;;;;;;;;;;2094681;28;20382;-83
2024/03/22 04:11:30;;;;;;;;;;;;;;;;;;2094851;28;19959;-82
2024/03/22 04:12:31;;;;;;;;;;;;;;;;;;2097101;28;20372;-81
2024/03/22 04:13:33;;;;;;;;;;;;;;;;;;2093271;28;19970;-83
2024/03/22 04:14:33;;;;;;;;;;;;;;;;;;2095413;28;20382;-83
2024/03/22 04:15:34;;;;;;;;;;;;;;;;;;2095678;28;19931;-83
2024/03/22 04:16:35;;;;;;;;;;;;;;;;;;2096738;28;19928;-83
2024/03/22 04:17:35;;;;;;;;;;;;;;;;;;2095237;28;19920;-81
2024/03/22 04:18:36;;;;;;;;;;;;;;;;;;2094874;28;20381;-82
2024/03/22 04:19:37;;;;;;;;;;;;;;;;;;2094721;28;19924;-83
2024/03/22 04:20:38;;;;;;;;;;;;;;;;;;2092845;28;19928;-83
2024/03/22 04:21:38;;;;;;;;;;;;;;;;;;2096479;28;20458;-81
2024/03/22 04:22:39;;;;;;;;;;;;;;;;;;2095171;28;20480;-82
2024/03/22 04:23:40;;;;;;;;;;;;;;;;;;2094433;28;19925;-82
2024/03/22 04:24:40;;;;;;;;;;;;;;;;;;2095568;28;19975;-81
2024/03/22 04:25:42;;;;;;;;;;;;;;;;;;2093435;28;20507;-82
2024/03/22 04:26:43;;;;;;;;;;;;;;;;;;2092925;28;19924;-81
2024/03/22 04:27:44;;;;;;;;;;;;;;;;;;2095336;28;20237;-81
2024/03/22 04:28:44;;;;;;;;;;;;;;;;;;2095351;28;19932;-82
2024/03/22 04:29:48;;;;;;;;;;;;;;;;;;2093074;28;19928;-80
2024/03/22 04:30:55;;;;;;;;;;;;;;;;;;2094025;28;19921;-81
2024/03/22 04:31:55;;;;;;;;;;;;;;;;;;2094685;28;19920;-82
2024/03/22 04:32:56;;;;;;;;;;;;;;;;;;2093301;28;20011;-81
2024/03/22 04:33:57;;;;;;;;;;;;;;;;;;2095945;28;19959;-81
2024/03/22 04:34:58;;;;;;;;;;;;;;;;;;2096459;28;19928;-81
2024/03/22 04:35:58;;;;;;;;;;;;;;;;;;2095013;28;20702;-81
2024/03/22 04:37:00;;;;;;;;;;;;;;;;;;2095145;28;19924;-83
2024/03/22 04:38:00;;;;;;;;;;;;;;;;;;2095383;28;19969;-83
2024/03/22 04:39:02;;;;;;;;;;;;;;;;;;2094385;28;19966;-82
2024/03/22 04:40:02;;;;;;;;;;;;;;;;;;2094462;28;19921;-81
2024/03/22 04:41:05;;;;;;;;;;;;;;;;;;2092225;28;19954;-82
2024/03/22 04:42:06;;;;;;;;;;;;;;;;;;2095393;28;20269;-82
2024/03/22 04:43:06;;;;;;;;;;;;;;;;;;2095702;28;20008;-82
2024/03/22 04:44:08;;;;;;;;;;;;;;;;;;2094060;28;20416;-81
2024/03/22 04:45:09;;;;;;;;;;;;;;;;;;2093149;28;20000;-81
2024/03/22 04:46:09;;;;;;;;;;;;;;;;;;2093448;28;19924;-82
2024/03/22 04:47:10;;;;;;;;;;;;;;;;;;2096213;28;20250;-82
2024/03/22 04:48:12;;;;;;;;;;;;;;;;;;2097040;28;19929;-82
2024/03/22 04:49:12;;;;;;;;;;;;;;;;;;2096274;28;19920;-81
2024/03/22 04:50:14;;;;;;;;;;;;;;;;;;2093578;28;20014;-81
2024/03/22 04:51:16;;;;;;;;;;;;;;;;;;2094665;28;19935;-82
2024/03/22 04:52:16;;;;;;;;;;;;;;;;;;2093425;28;19951;-82
2024/03/22 04:53:17;;;;;;;;;;;;;;;;;;2094606;28;19927;-82
2024/03/22 04:54:17;;;;;;;;;;;;;;;;;;2095436;28;19920;-80
2024/03/22 04:55:18;;;;;;;;;;;;;;;;;;2095178;28;19932;-81
2024/03/22 04:56:20;;;;;;;;;;;;;;;;;;2096016;28;19925;-81
2024/03/22 04:57:20;;;;;;;;;;;;;;;;;;2093818;28;19925;-81
2024/03/22 04:58:22;;;;;;;;;;;;;;;;;;2091618;28;21191;-81
2024/03/22 04:59:22;;;;;;;;;;;;;;;;;;2097490;28;19928;-83
2024/03/22 05:00:24;;;;;;;;;;;;;;;;;;2093682;28;20004;-82
2024/03/22 05:01:25;;;;;;;;;;;;;;;;;;2093570;28;20401;-82
2024/03/22 05:02:26;;;;;;;;;;;;;;;;;;2093312;28;19959;-82
2024/03/22 05:03:27;;;;;;;;;;;;;;;;;;2096633;28;20022;-82
2024/03/22 05:04:27;;;;;;;;;;;;;;;;;;2095520;28;19924;-82
2024/03/22 05:05:27;;;;;;;;;;;;;;;;;;2094843;28;19921;-82
2024/03/22 05:06:29;;;;;;;;;;;;;;;;;;2091110;28;19994;-80
2024/03/22 05:07:29;;;;;;;;;;;;;;;;;;2094570;28;19920;-81
2024/03/22 05:08:30;;;;;;;;;;;;;;;;;;2095339;28;19921;-82
2024/03/22 05:09:31;;;;;;;;;;;;;;;;;;2095209;28;19927;-82
2024/03/22 05:10:33;;;;;;;;;;;;;;;;;;2092118;28;19940;-82
2024/03/22 05:11:35;;;;;;;;;;;;;;;;;;2094545;28;19920;-81
2024/03/22 05:12:35;;;;;;;;;;;;;;;;;;2091932;28;19929;-81
2024/03/22 05:13:36;;;;;;;;;;;;;;;;;;2093918;28;20293;-81
2024/03/22 05:14:37;;;;;;;;;;;;;;;;;;2093920;28;19925;-82
2024/03/22 05:15:37;;;;;;;;;;;;;;;;;;2093922;28;20381;-82
2024/03/22 05:16:38;;;;;;;;;;;;;;;;;;2094454;28;19920;-82
2024/03/22 05:17:39;;;;;;;;;;;;;;;;;;2092964;28;21173;-81
2024/03/22 05:18:40;;;;;;;;;;;;;;;;;;2096130;28;19924;-81
2024/03/22 05:19:40;;;;;;;;;;;;;;;;;;2089795;28;19924;-80
2024/03/22 05:20:41;;;;;;;;;;;;;;;;;;2084384;28;19952;-81
2024/03/22 05:21:41;;;;;;;;;;;;;;;;;;2086637;28;20248;-81
2024/03/22 05:22:43;;;;;;;;;;;;;;;;;;2084271;28;19979;-81
2024/03/22 05:23:43;;;;;;;;;;;;;;;;;;2086001;28;19924;-81
2024/03/22 05:24:44;;;;;;;;;;;;;;;;;;2088945;28;20298;-81
2024/03/22 05:25:44;;;;;;;;;;;;;;;;;;2083140;28;19967;-82
2024/03/22 05:26:47;;;;;;;;;;;;;;;;;;2086188;28;20505;-82
2024/03/22 05:27:47;;;;;;;;;;;;;;;;;;2086482;28;20366;-82
2024/03/22 05:28:47;;;;;;;;;;;;;;;;;;2085898;28;19929;-83
2024/03/22 05:29:48;;;;;;;;;;;;;;;;;;2087435;28;19920;-82
2024/03/22 05:30:49;;;;;;;;;;;;;;;;;;2086125;28;19932;-81
2024/03/22 05:31:51;;;;;;;;;;;;;;;;;;2087324;28;19921;-83
2024/03/22 05:32:51;;;;;;;;;;;;;;;;;;2087174;28;19960;-81
2024/03/22 05:33:52;;;;;;;;;;;;;;;;;;2085712;28;19925;-82
2024/03/22 05:34:53;;;;;;;;;;;;;;;;;;2086663;28;20356;-82
2024/03/22 05:35:54;;;;;;;;;;;;;;;;;;2086332;28;20591;-81
2024/03/22 05:36:54;;;;;;;;;;;;;;;;;;2086128;28;19929;-81
2024/03/22 05:37:55;;;;;;;;;;;;;;;;;;2088702;28;19974;-81
2024/03/22 05:38:56;;;;;;;;;;;;;;;;;;2086585;28;20252;-81
2024/03/22 05:39:56;;;;;;;;;;;;;;;;;;2088683;28;19975;-82
2024/03/22 05:40:57;;;;;;;;;;;;;;;;;;2087229;28;19921;-82
2024/03/22 05:41:59;;;;;;;;;;;;;;;;;;2088508;28;19921;-82
2024/03/22 05:43:00;;;;;;;;;;;;;;;;;;2085125;28;19925;-83
2024/03/22 05:44:00;;;;;;;;;;;;;;;;;;2085748;28;19975;-82
2024/03/22 05:45:01;;;;;;;;;;;;;;;;;;2086718;28;19924;-81
2024/03/22 05:46:02;;;;;;;;;;;;;;;;;;2088440;28;19924;-82
2024/03/22 05:47:03;;;;;;;;;;;;;;;;;;2096683;28;19920;-81
2024/03/22 05:48:03;;;;;;;;;;;;;;;;;;2098336;28;19928;-81
2024/03/22 05:49:04;;;;;;;;;;;;;;;;;;2097364;28;19971;-82
2024/03/22 05:50:06;;;;;;;;;;;;;;;;;;2097226;28;19948;-81
2024/03/22 05:51:07;;;;;;;;;;;;;;;;;;2094251;28;19921;-81
2024/03/22 05:52:07;;;;;;;;;;;;;;;;;;2096395;28;20382;-82
2024/03/22 05:53:10;;;;;;;;;;;;;;;;;;2096058;28;19921;-83
2024/03/22 05:54:11;;;;;;;;;;;;;;;;;;2098081;28;19924;-81
2024/03/22 05:55:12;;;;;;;;;;;;;;;;;;2095472;28;19921;-82
2024/03/22 05:56:12;;;;;;;;;;;;;;;;;;2096344;28;19951;-82
2024/03/22 05:57:15;;;;;;;;;;;;;;;;;;2095720;28;19949;-81
2024/03/22 05:58:15;;;;;;;;;;;;;;;;;;2095572;28;20540;-81
2024/03/22 05:59:15;;;;;;;;;;;;;;;;;;2096918;28;19924;-81
2024/03/22 06:00:16;;;;;;;;;;;;;;;;;;2096910;28;19920;-83
2024/03/22 06:01:16;;;;;;;;;;;;;;;;;;2094251;28;19929;-79
2024/03/22 06:02:18;;;;;;;;;;;;;;;;;;2095387;28;19974;-81
2024/03/22 06:03:18;;;;;;;;;;;;;;;;;;2098190;28;19928;-83
2024/03/22 06:04:19;;;;;;;;;;;;;;;;;;2096914;28;19920;-81
2024/03/22 06:05:19;;;;;;;;;;;;;;;;;;2096367;28;19974;-81
2024/03/22 06:06:22;;;;;;;;;;;;;;;;;;2096046;28;19924;-82
2024/03/22 06:07:22;;;;;;;;;;;;;;;;;;2096908;28;20008;-81
2024/03/22 06:08:23;;;;;;;;;;;;;;;;;;2094372;28;19931;-81
2024/03/22 06:09:24;;;;;;;;;;;;;;;;;;2095086;28;19932;-82
2024/03/22 06:10:25;;;;;;;;;;;;;;;;;;2095818;28;19954;-81
2024/03/22 06:11:26;;;;;;;;;;;;;;;;;;2093306;28;20991;-82
2024/03/22 06:12:27;;;;;;;;;;;;;;;;;;2097417;28;19924;-81
2024/03/22 06:13:28;;;;;;;;;;;;;;;;;;2092967;28;19929;-82
2024/03/22 06:14:29;;;;;;;;;;;;;;;;;;2093626;28;19925;-81
2024/03/22 06:15:30;;;;;;;;;;;;;;;;;;2096079;28;20317;-80
2024/03/22 06:16:30;;;;;;;;;;;;;;;;;;2096618;28;19927;-82
2024/03/22 06:17:30;;;;;;;;;;;;;;;;;;2096556;28;19924;-81
2024/03/22 06:18:32;;;;;;;;;;;;;;;;;;2096486;28;19928;-83
2024/03/22 06:19:32;;;;;;;;;;;;;;;;;;2095139;28;19920;-81
2024/03/22 06:20:32;;;;;;;;;;;;;;;;;;2096574;28;20547;-81
2024/03/22 06:21:33;;;;;;;;;;;;;;;;;;2097029;28;20030;-82
2024/03/22 06:22:33;;;;;;;;;;;;;;;;;;2096773;28;20320;-82
2024/03/22 06:23:35;;;;;;;;;;;;;;;;;;2097263;28;19936;-82
2024/03/22 06:24:35;;;;;;;;;;;;;;;;;;2096049;28;19932;-82
2024/03/22 06:25:36;;;;;;;;;;;;;;;;;;2094440;28;20340;-81
2024/03/22 06:26:36;;;;;;;;;;;;;;;;;;2094669;28;21583;-82
2024/03/22 06:27:39;;;;;;;;;;;;;;;;;;2094691;28;19935;-82
2024/03/22 06:28:39;;;;;;;;;;;;;;;;;;2087740;28;20405;-84
2024/03/22 06:29:40;;;;;;;;;;;;;;;;;;2089221;28;20007;-81
2024/03/22 06:30:40;;;;;;;;;;;;;;;;;;2089975;28;19920;-81
2024/03/22 06:31:41;;;;;;;;;;;;;;;;;;2094006;28;20388;-82
2024/03/22 06:32:42;;;;;;;;;;;;;;;;;;2097574;28;19924;-85
2024/03/22 06:33:42;;;;;;;;;;;;;;;;;;2094832;28;19970;-82
2024/03/22 06:34:45;;;;;;;;;;;;;;;;;;2093002;28;19920;-82
2024/03/22 06:35:46;;;;;;;;;;;;;;;;;;2093742;28;19928;-80
2024/03/22 06:36:47;;;;;;;;;;;;;;;;;;2097163;28;19920;-80
2024/03/22 06:37:48;;;;;;;;;;;;;;;;;;2094345;28;20988;-84
2024/03/22 06:38:49;;;;;;;;;;;;;;;;;;2096322;28;20415;-82
2024/03/22 06:39:50;;;;;;;;;;;;;;;;;;2096943;28;19928;-81
2024/03/22 06:40:50;;;;;;;;;;;;;;;;;;2094512;28;19920;-80
2024/03/22 06:41:52;;;;;;;;;;;;;;;;;;2095427;28;19920;-83
2024/03/22 06:42:54;;;;;;;;;;;;;;;;;;2095820;28;19969;-81
2024/03/22 06:43:54;;;;;;;;;;;;;;;;;;2093978;28;19974;-83
2024/03/22 06:44:54;;;;;;;;;;;;;;;;;;2096651;28;19928;-85
2024/03/22 06:45:55;;;;;;;;;;;;;;;;;;2095711;28;19928;-82
2024/03/22 06:46:56;;;;;;;;;;;;;;;;;;2096196;28;19934;-82
2024/03/22 06:47:57;;;;;;;;;;;;;;;;;;2097313;28;19924;-81
2024/03/22 06:48:57;;;;;;;;;;;;;;;;;;2094509;28;19990;-82
2024/03/22 06:49:57;;;;;;;;;;;;;;;;;;2091553;28;19920;-83
2024/03/22 06:50:59;;;;;;;;;;;;;;;;;;2094809;28;20407;-81
2024/03/22 06:51:59;;;;;;;;;;;;;;;;;;2092723;28;19924;-80
2024/03/22 06:53:00;;;;;;;;;;;;;;;;;;2088562;28;19936;-82
2024/03/22 06:54:00;;;;;;;;;;;;;;;;;;2086041;28;19924;-82
2024/03/22 06:55:00;;;;;;;;;;;;;;;;;;2087612;28;19932;-83
2024/03/22 06:56:02;;;;;;;;;;;;;;;;;;2095429;28;20353;-83